Time;durP1;ratioP1;P1;durP2;ratioP2;P2;SDS_P1;SDS_P2;PMS_P1;PMS_P2;Temp;Humidity;BMP_temperature;BMP_pressure;BME280_temperature;BME280_humidity;BME280_pressure;Samples;Min_cycle;Max_cycle;Signal;HPM_P1;HPM_P2
2022/07/31 00:01:12;;;;;;;7.25;4.60;;;;;;;23.62;68.74;99010.81;5070422;28;20047;-75
2022/07/31 00:03:37;;;;;;;5.32;4.63;;;;;;;23.54;68.53;99026.50;5072667;28;20068;-75
2022/07/31 00:06:03;;;;;;;6.38;4.80;;;;;;;23.55;68.48;99039.50;5073114;28;20098;-75
2022/07/31 00:08:28;;;;;;;4.65;4.25;;;;;;;23.55;68.09;99033.81;5072309;28;20107;-75
2022/07/31 00:10:55;;;;;;;6.55;4.43;;;;;;;23.65;67.94;99040.56;5065635;28;20028;-75
2022/07/31 00:13:21;;;;;;;4.53;4.13;;;;;;;23.54;67.69;99055.81;5053879;28;20048;-75
2022/07/31 00:15:46;;;;;;;6.03;5.50;;;;;;;23.60;66.75;99047.56;5058374;28;20459;-75
2022/07/31 00:18:12;;;;;;;6.55;5.22;;;;;;;23.63;67.75;99057.31;5073727;28;20058;-75
2022/07/31 00:20:37;;;;;;;5.22;4.75;;;;;;;23.57;67.16;99071.28;5066680;28;20099;-75
2022/07/31 00:23:03;;;;;;;6.97;4.90;;;;;;;23.40;69.77;99071.13;5053566;28;20538;-75
2022/07/31 00:25:29;;;;;;;6.43;5.22;;;;;;;23.22;70.40;99074.22;5053653;28;20056;-75
2022/07/31 00:27:55;;;;;;;5.97;5.40;;;;;;;22.88;72.04;99074.34;5052218;28;20029;-75
2022/07/31 00:30:20;;;;;;;6.30;5.40;;;;;;;22.97;72.39;99071.78;5051516;28;20025;-75
2022/07/31 00:32:46;;;;;;;9.20;6.32;;;;;;;22.58;73.92;99073.94;5053192;28;20448;-75
2022/07/31 00:35:12;;;;;;;6.88;6.18;;;;;;;22.37;76.04;99086.38;5051841;28;20032;-75
2022/07/31 00:37:39;;;;;;;10.57;5.82;;;;;;;22.21;76.19;99082.09;5068750;28;20021;-75
2022/07/31 00:40:05;;;;;;;10.55;6.57;;;;;;;22.24;75.52;99075.56;5072512;28;20024;-75
2022/07/31 00:42:31;;;;;;;8.20;6.93;;;;;;;21.85;78.07;99059.72;5068580;28;20107;-75
2022/07/31 00:44:57;;;;;;;7.28;6.57;;;;;;;21.66;78.58;99066.75;5053146;28;20108;-75
2022/07/31 00:47:23;;;;;;;9.25;7.30;;;;;;;21.09;80.67;99060.34;5054087;28;20017;-75
2022/07/31 00:49:49;;;;;;;11.95;6.90;;;;;;;20.80;82.18;99061.28;5067247;28;20036;-75
2022/07/31 00:52:15;;;;;;;10.18;6.93;;;;;;;20.66;82.69;99067.06;5069978;28;20021;-75
2022/07/31 00:54:41;;;;;;;8.88;6.85;;;;;;;20.51;83.55;99057.81;5072351;28;20032;-75
2022/07/31 00:57:06;;;;;;;10.55;7.70;;;;;;;20.37;84.80;99078.53;5062352;28;20176;-75
2022/07/31 00:59:32;;;;;;;11.07;8.70;;;;;;;20.14;86.41;99077.81;5052074;28;20087;-74
2022/07/31 01:01:58;;;;;;;11.13;7.43;;;;;;;20.10;87.71;99076.22;5050646;28;20047;-75
2022/07/31 01:04:25;;;;;;;11.23;8.18;;;;;;;20.18;88.09;99080.66;5052296;28;20096;-78
2022/07/31 01:06:51;;;;;;;8.43;7.60;;;;;;;20.19;88.55;99068.06;5063787;28;20028;-75
2022/07/31 01:09:17;;;;;;;12.52;8.90;;;;;;;20.25;88.47;99065.63;5071589;28;20028;-75
2022/07/31 01:12:14;;;;;;;9.30;8.15;;;;;;;20.25;87.79;99068.47;5057598;28;20021;-76
2022/07/31 01:14:46;;;;;;;11.43;9.15;;;;;;;20.14;88.89;99077.00;5050668;28;20033;-75
2022/07/31 01:17:15;;;;;;;11.02;9.00;;;;;;;20.16;88.35;99069.69;5052516;28;20048;-75
2022/07/31 01:19:43;;;;;;;11.05;9.88;;;;;;;20.23;88.19;99077.38;5052241;28;20067;-75
2022/07/31 01:22:30;;;;;;;9.80;8.02;;;;;;;20.14;87.64;99079.84;5051700;28;20086;-75
2022/07/31 01:25:21;;;;;;;16.27;8.93;;;;;;;20.23;88.01;99074.53;5067235;28;20032;-74
2022/07/31 01:28:00;;;;;;;11.05;8.82;;;;;;;20.36;86.94;99068.41;5072017;28;20032;-75
2022/07/31 01:30:33;;;;;;;8.93;8.00;;;;;;;20.33;86.38;99064.34;5068006;28;20425;-75
2022/07/31 01:33:09;;;;;;;13.27;9.20;;;;;;;20.39;85.34;99071.25;5063480;28;20479;-75
2022/07/31 01:35:41;;;;;;;10.75;8.70;;;;;;;20.41;85.76;99068.78;5071857;28;20028;-75
2022/07/31 01:38:25;;;;;;;8.82;7.20;;;;;;;20.42;85.15;99053.38;5069287;28;20051;-75
2022/07/31 01:40:58;;;;;;;11.20;8.52;;;;;;;20.53;85.60;99059.00;5068281;28;20546;-75
2022/07/31 01:43:38;;;;;;;14.15;8.50;;;;;;;20.44;85.01;99052.97;5070198;28;20029;-75
2022/07/31 01:46:06;;;;;;;16.58;8.55;;;;;;;20.43;84.35;99057.03;5069801;28;20081;-75
2022/07/31 01:48:34;;;;;;;12.15;8.73;;;;;;;20.34;84.88;99049.75;5070041;28;20086;-75
2022/07/31 01:51:01;;;;;;;9.30;8.07;;;;;;;20.23;84.43;99057.50;5064171;28;20055;-75
2022/07/31 01:53:30;;;;;;;11.75;8.48;;;;;;;20.18;85.31;99049.44;5050970;28;20078;-75
2022/07/31 01:55:57;;;;;;;9.60;8.35;;;;;;;20.14;84.87;99054.28;5069707;28;20036;-75
2022/07/31 01:58:25;;;;;;;10.02;7.22;;;;;;;20.27;84.01;99046.97;5070881;28;20527;-75
2022/07/31 02:00:58;;;;;;;9.40;7.63;;;;;;;20.46;83.31;99047.69;5066881;28;20033;-75
2022/07/31 02:03:25;;;;;;;8.63;6.40;;;;;;;20.35;83.70;99064.78;5070948;28;20033;-75
2022/07/31 02:05:52;;;;;;;8.95;6.50;;;;;;;20.22;83.04;99067.25;5069788;28;20494;-75
2022/07/31 02:08:20;;;;;;;10.02;6.82;;;;;;;20.21;84.25;99068.47;5068347;28;20406;-75
2022/07/31 02:10:46;;;;;;;8.05;7.25;;;;;;;20.23;83.15;99057.50;5050093;28;20024;-75
2022/07/31 02:13:13;;;;;;;11.23;7.72;;;;;;;20.27;82.71;99051.81;5051092;28;20027;-75
2022/07/31 02:15:41;;;;;;;11.48;6.80;;;;;;;20.25;82.48;99048.59;5050966;28;20016;-75
2022/07/31 02:18:09;;;;;;;11.93;7.57;;;;;;;20.29;82.41;99032.34;5063891;28;20028;-75
2022/07/31 02:20:39;;;;;;;8.18;6.50;;;;;;;20.34;82.31;99046.91;5068085;28;20028;-75
2022/07/31 02:23:05;;;;;;;8.90;7.63;;;;;;;20.43;81.17;99048.50;5050836;28;20099;-75
2022/07/31 02:25:34;;;;;;;8.85;6.40;;;;;;;20.51;81.03;99047.22;5050989;28;20454;-75
2022/07/31 02:28:01;;;;;;;9.32;7.03;;;;;;;20.57;80.22;99047.59;5049606;28;20110;-75
2022/07/31 02:30:30;;;;;;;9.38;6.75;;;;;;;20.71;80.04;99047.56;5050457;28;20025;-75
2022/07/31 02:32:56;;;;;;;7.18;6.47;;;;;;;20.75;79.25;99041.81;5050868;28;20130;-75
2022/07/31 02:35:23;;;;;;;7.03;6.32;;;;;;;20.93;78.33;99040.94;5049456;28;20025;-75
2022/07/31 02:37:51;;;;;;;9.60;6.80;;;;;;;21.08;77.56;99039.63;5050786;28;20017;-75
2022/07/31 02:40:18;;;;;;;8.52;6.22;;;;;;;21.20;76.87;99038.31;5068414;28;20039;-75
2022/07/31 02:42:45;;;;;;;8.43;6.32;;;;;;;21.10;77.43;99048.53;5051562;28;20021;-75
2022/07/31 02:45:12;;;;;;;12.93;7.30;;;;;;;20.97;78.02;99047.41;5050677;28;20384;-75
2022/07/31 02:47:39;;;;;;;7.22;6.38;;;;;;;20.96;77.79;99040.09;5049350;28;20127;-75
2022/07/31 02:50:05;;;;;;;9.15;6.80;;;;;;;20.86;78.24;99053.19;5049444;28;20056;-75
2022/07/31 02:52:32;;;;;;;9.40;7.10;;;;;;;20.74;78.85;99046.72;5050312;28;20025;-75
2022/07/31 02:54:58;;;;;;;9.20;6.70;;;;;;;20.64;79.44;99052.47;5050722;28;20021;-75
2022/07/31 02:57:24;;;;;;;10.38;8.38;;;;;;;20.61;79.73;99052.06;5056049;28;20102;-75
2022/07/31 02:59:50;;;;;;;9.30;7.78;;;;;;;20.57;79.99;99044.78;5070592;28;20028;-76
2022/07/31 03:02:15;;;;;;;8.85;7.85;;;;;;;20.43;80.30;99046.47;5053868;28;20393;-76
2022/07/31 03:04:41;;;;;;;9.70;8.45;;;;;;;20.45;80.54;99046.06;5050644;28;20064;-76
2022/07/31 03:07:07;;;;;;;8.80;7.60;;;;;;;20.68;79.39;99039.03;5062885;28;20475;-75
2022/07/31 03:09:32;;;;;;;9.43;7.40;;;;;;;20.85;79.22;99040.97;5069227;28;20509;-76
2022/07/31 03:11:58;;;;;;;10.13;8.15;;;;;;;20.71;79.50;99049.56;5057379;28;20021;-75
2022/07/31 03:14:25;;;;;;;10.48;8.20;;;;;;;20.65;79.62;99042.72;5050430;28;20037;-75
2022/07/31 03:16:52;;;;;;;17.15;8.00;;;;;;;20.52;80.41;99042.38;5050553;28;20033;-76
2022/07/31 03:19:21;;;;;;;9.95;8.18;;;;;;;20.46;80.75;99042.00;5070374;28;20059;-75
2022/07/31 03:21:47;;;;;;;11.75;8.52;;;;;;;20.50;80.23;99039.16;5060480;28;20104;-75
2022/07/31 03:24:13;;;;;;;9.95;7.90;;;;;;;20.38;80.70;99051.75;5053042;28;20076;-75
2022/07/31 03:26:39;;;;;;;9.95;8.95;;;;;;;20.43;80.82;99054.19;5067317;28;20055;-75
2022/07/31 03:29:04;;;;;;;14.23;9.25;;;;;;;20.63;80.33;99057.34;5073892;28;20545;-75
2022/07/31 03:31:30;;;;;;;9.57;8.13;;;;;;;20.73;79.38;99056.47;5063843;28;20078;-75
2022/07/31 03:33:55;;;;;;;12.10;10.18;;;;;;;20.67;79.15;99068.69;5056435;28;20094;-76
2022/07/31 03:36:21;;;;;;;11.88;8.77;;;;;;;20.39;80.35;99059.06;5073757;28;20028;-76
2022/07/31 03:38:47;;;;;;;14.75;9.80;;;;;;;20.10;82.03;99064.84;5071287;28;20475;-75
2022/07/31 03:41:13;;;;;;;12.98;10.30;;;;;;;20.05;83.00;99066.06;5066293;28;20107;-77
2022/07/31 03:43:41;;;;;;;11.45;9.07;;;;;;;20.01;82.65;99073.81;5052432;28;20089;-77
2022/07/31 03:46:08;;;;;;;11.80;10.52;;;;;;;20.11;82.24;99069.31;5052313;28;20021;-77
2022/07/31 03:48:34;;;;;;;15.63;10.82;;;;;;;20.22;82.06;99070.09;5058089;28;20064;-77
2022/07/31 03:50:59;;;;;;;13.73;10.38;;;;;;;20.14;81.72;99077.00;5068394;28;20487;-77
2022/07/31 03:53:25;;;;;;;14.68;11.13;;;;;;;20.04;82.12;99067.31;5073529;28;20032;-77
2022/07/31 03:55:52;;;;;;;56.05;13.45;;;;;;;20.01;82.78;99068.91;5072847;28;20024;-79
2022/07/31 03:58:18;;;;;;;22.42;12.80;;;;;;;19.95;82.83;99073.41;5062745;28;20048;-78
2022/07/31 04:00:44;;;;;;;16.17;13.05;;;;;;;19.84;83.29;99064.06;5053300;28;20040;-76
2022/07/31 04:03:12;;;;;;;12.77;11.07;;;;;;;19.93;82.60;99061.66;5051931;28;20102;-83
2022/07/31 04:05:38;;;;;;;14.23;11.13;;;;;;;19.91;82.11;99055.56;5052089;28;20415;-79
2022/07/31 04:08:08;;;;;;;14.25;10.13;;;;;;;20.08;82.77;99055.94;5051907;28;20059;-80
2022/07/31 04:10:35;;;;;;;20.30;11.07;;;;;;;20.01;81.51;99046.22;5053424;28;20043;-76
2022/07/31 04:13:01;;;;;;;15.35;11.15;;;;;;;20.03;82.32;99054.34;5053431;28;20028;-78
2022/07/31 04:15:27;;;;;;;21.50;10.98;;;;;;;20.27;81.67;99054.66;5064250;28;20081;-79
2022/07/31 04:20:59;;;;;;;17.65;11.15;;;;;;;20.58;79.74;99055.72;2152140;22;20339;-73
2022/07/31 04:23:25;;;;;;;12.65;9.25;;;;;;;20.64;79.10;99061.00;5067170;28;20067;-73
2022/07/31 04:25:51;;;;;;;11.55;9.32;;;;;;;20.67;78.65;99054.47;5071961;28;20031;-75
2022/07/31 04:28:16;;;;;;;11.80;9.75;;;;;;;20.75;78.29;99061.72;5059513;28;20044;-73
2022/07/31 04:30:42;;;;;;;15.82;10.23;;;;;;;20.74;78.60;99065.78;5063271;28;20126;-73
2022/07/31 04:33:08;;;;;;;15.80;10.65;;;;;;;20.83;77.38;99056.84;5070293;28;20027;-73
2022/07/31 04:35:33;;;;;;;16.08;8.90;;;;;;;20.80;77.70;99052.78;5072568;28;20102;-75
2022/07/31 04:37:59;;;;;;;13.55;9.23;;;;;;;20.87;77.82;99058.44;5071404;28;20020;-75
2022/07/31 04:40:26;;;;;;;13.30;9.75;;;;;;;20.93;78.33;99064.47;5071438;28;20039;-75
2022/07/31 04:42:52;;;;;;;17.45;9.45;;;;;;;20.98;79.06;99060.41;5072278;28;20051;-75
2022/07/31 04:45:18;;;;;;;12.15;9.30;;;;;;;21.10;77.79;99051.38;5071154;28;20149;-75
2022/07/31 04:47:43;;;;;;;11.82;8.90;;;;;;;21.13;76.68;99056.25;5072482;28;20508;-75
2022/07/31 04:50:09;;;;;;;12.05;8.70;;;;;;;21.26;77.36;99065.06;5071891;28;20016;-75
2022/07/31 04:52:34;;;;;;;16.98;12.00;;;;;;;21.16;78.28;99055.41;5071449;28;20051;-75
2022/07/31 04:55:00;;;;;;;16.08;10.75;;;;;;;21.29;77.97;99058.53;5071900;28;20088;-76
2022/07/31 04:57:26;;;;;;;16.77;12.43;;;;;;;21.43;76.45;99062.50;5070585;28;20472;-77
2022/07/31 04:59:51;;;;;;;12.13;8.65;;;;;;;21.32;74.48;99065.44;5060938;28;20017;-79
2022/07/31 05:02:16;;;;;;;11.43;8.23;;;;;;;21.35;74.51;99061.75;5071648;28;20060;-79
2022/07/31 05:04:42;;;;;;;12.82;10.32;;;;;;;21.20;73.86;99046.84;5072085;28;20048;-79
2022/07/31 05:07:07;;;;;;;10.10;8.50;;;;;;;21.43;74.30;99066.16;5070082;28;20028;-78
2022/07/31 05:09:34;;;;;;;10.27;8.45;;;;;;;21.21;73.95;99030.59;5071606;28;20043;-78
2022/07/31 05:12:00;;;;;;;9.20;7.32;;;;;;;21.69;73.60;99074.50;5071443;28;20021;-79
2022/07/31 05:14:27;;;;;;;12.57;7.40;;;;;;;21.88;71.67;99073.88;5072071;28;20028;-79
2022/07/31 05:16:52;;;;;;;8.43;6.35;;;;;;;22.09;72.74;99074.91;5065999;28;20047;-78
2022/07/31 05:19:18;;;;;;;10.00;7.70;;;;;;;22.26;71.32;99072.25;5065440;28;20490;-78
2022/07/31 05:21:44;;;;;;;11.98;6.80;;;;;;;22.23;69.16;99073.94;5069985;28;20048;-75
2022/07/31 05:24:10;;;;;;;8.20;6.18;;;;;;;22.28;69.62;99059.22;5071862;28;20461;-74
2022/07/31 05:26:37;;;;;;;8.55;5.22;;;;;;;22.53;67.85;99066.66;5071716;28;20029;-76
2022/07/31 05:29:03;;;;;;;13.70;6.05;;;;;;;22.71;67.81;99065.63;5071877;28;20464;-75
2022/07/31 05:31:29;;;;;;;98.85;10.73;;;;;;;22.95;66.01;99060.78;5070641;28;20032;-74
2022/07/31 05:37:21;;;;;;;4.65;3.50;;;;;;;23.46;60.88;99053.53;5281426;22;20055;-88
2022/07/31 05:39:46;;;;;;;3.90;3.45;;;;;;;23.47;60.82;99044.53;5070807;28;20032;-88
2022/07/31 05:42:12;;;;;;;8.77;4.53;;;;;;;23.61;59.59;99060.59;5075573;28;20028;-90
2022/07/31 05:44:37;;;;;;;6.93;4.20;;;;;;;23.36;59.15;99027.59;5092513;28;20474;-89
2022/07/31 05:47:06;;;;;;;25.38;5.97;;;;;;;23.31;60.34;99048.06;5074512;28;20028;-89
2022/07/31 05:49:32;;;;;;;6.55;4.38;;;;;;;23.48;60.25;99051.84;5074939;28;20453;-88
2022/07/31 05:51:57;;;;;;;6.85;4.07;;;;;;;23.48;62.10;99051.03;5092780;28;20103;-88
2022/07/31 05:54:23;;;;;;;9.10;4.38;;;;;;;23.67;60.54;99040.91;5074835;28;20035;-90
2022/07/31 05:56:48;;;;;;;6.05;4.75;;;;;;;23.72;60.25;99045.31;5074793;28;20610;-89
2022/07/31 05:59:14;;;;;;;7.20;4.78;;;;;;;23.78;59.39;99041.53;5074709;28;20436;-89
2022/07/31 06:01:39;;;;;;;5.20;4.70;;;;;;;23.77;58.60;99039.09;5074652;28;20028;-89
2022/07/31 06:04:04;;;;;;;6.45;4.60;;;;;;;23.97;58.81;99044.88;5073074;28;20040;-89
2022/07/31 06:06:30;;;;;;;6.47;4.85;;;;;;;23.94;59.22;99040.00;5073929;28;20035;-89
2022/07/31 06:08:56;;;;;;;8.18;5.38;;;;;;;24.20;58.79;99049.72;5092511;28;20031;-89
2022/07/31 06:11:22;;;;;;;7.30;5.28;;;;;;;24.33;58.51;99046.22;5074502;28;20028;-88
2022/07/31 06:13:47;;;;;;;6.95;5.85;;;;;;;24.42;58.10;99046.44;5074440;28;20028;-90
2022/07/31 06:16:13;;;;;;;7.38;6.60;;;;;;;24.41;57.82;99050.53;5085176;28;20056;-89
2022/07/31 06:18:40;;;;;;;11.27;5.50;;;;;;;24.13;58.72;99021.28;5055449;28;20094;-89
2022/07/31 06:21:08;;;;;;;21.10;11.68;;;;;;;24.37;58.47;99049.78;5055228;28;20032;-89
2022/07/31 06:23:34;;;;;;;44.78;24.10;;;;;;;24.16;58.24;99057.56;5072084;28;20032;-89
2022/07/31 06:25:59;;;;;;;9.13;6.15;;;;;;;24.18;58.59;99052.22;5054354;28;20116;-89
2022/07/31 06:28:25;;;;;;;9.63;6.20;;;;;;;24.27;57.88;99034.50;5073203;28;20035;-89
2022/07/31 06:30:50;;;;;;;29.85;7.22;;;;;;;24.55;57.96;99052.28;5092592;28;20020;-90
2022/07/31 06:33:16;;;;;;;24.88;11.05;;;;;;;24.58;58.51;99042.84;5074248;28;20089;-90
2022/07/31 06:35:41;;;;;;;10.25;7.40;;;;;;;24.72;57.49;99055.97;5074947;28;20071;-90
2022/07/31 06:38:07;;;;;;;39.95;12.38;;;;;;;24.76;58.63;99065.31;5074449;28;20051;-89
2022/07/31 06:40:32;;;;;;;11.57;7.80;;;;;;;24.56;57.22;99027.38;5073268;28;20059;-90
2022/07/31 06:42:58;;;;;;;22.73;13.25;;;;;;;24.94;57.05;99053.50;5092310;28;20089;-90
2022/07/31 06:45:23;;;;;;;19.45;11.30;;;;;;;24.92;57.52;99063.75;5080817;28;20483;-88
2022/07/31 06:47:49;;;;;;;27.98;17.17;;;;;;;24.92;57.65;99052.31;5074521;28;20052;-93
2022/07/31 06:50:15;;;;;;;28.90;15.85;;;;;;;25.05;57.49;99053.22;5074884;28;20027;-89
2022/07/31 06:52:40;;;;;;;7.82;6.70;;;;;;;24.97;57.82;99054.63;5068503;28;20111;-89
2022/07/31 06:55:06;;;;;;;17.63;12.85;;;;;;;24.59;59.29;99057.91;5071189;28;20024;-90
2022/07/31 06:57:32;;;;;;;17.63;8.90;;;;;;;24.64;58.03;99043.13;5075567;28;20525;-90
2022/07/31 06:59:57;;;;;;;12.32;9.30;;;;;;;24.51;57.82;99046.66;5096050;28;20032;-90
2022/07/31 07:02:24;;;;;;;69.05;44.58;;;;;;;24.77;58.94;99055.50;5077790;28;20028;-91
2022/07/31 07:04:50;;;;;;;31.80;16.33;;;;;;;25.08;58.80;99045.81;5072418;28;20059;-90
2022/07/31 07:07:15;;;;;;;31.65;19.27;;;;;;;25.21;58.04;99048.75;5077140;28;20031;-89
2022/07/31 07:09:41;;;;;;;14.77;11.48;;;;;;;25.43;57.13;99051.09;5074996;28;20387;-90
2022/07/31 07:12:07;;;;;;;12.95;8.65;;;;;;;25.44;57.11;99044.13;5079364;28;20167;-92
2022/07/31 07:14:32;;;;;;;13.52;8.73;;;;;;;25.63;56.67;99043.25;5082192;28;20031;-90
2022/07/31 07:17:02;;;;;;;21.75;13.27;;;;;;;25.65;56.85;99037.88;5077964;28;20028;-91
2022/07/31 07:19:27;;;;;;;31.52;19.30;;;;;;;25.72;55.58;99034.00;5076643;28;20047;-90
2022/07/31 07:21:53;;;;;;;23.42;14.10;;;;;;;26.02;54.16;99048.34;5074940;28;20032;-91
2022/07/31 07:24:18;;;;;;;25.50;13.02;;;;;;;25.99;55.18;99026.34;5076208;28;20066;-90
2022/07/31 07:26:44;;;;;;;12.88;9.52;;;;;;;25.99;54.32;99041.47;5077519;28;20425;-90
2022/07/31 07:29:09;;;;;;;13.45;9.77;;;;;;;25.99;54.61;99040.66;5072379;28;20040;-91
2022/07/31 07:31:37;;;;;;;12.20;9.32;;;;;;;26.14;54.22;99041.06;5073511;28;20050;-91
2022/07/31 07:34:05;;;;;;;10.73;9.60;;;;;;;25.78;53.42;99009.31;5075446;28;20119;-90
2022/07/31 07:36:31;;;;;;;11.27;9.85;;;;;;;25.82;54.74;99009.19;5076127;28;20027;-90
2022/07/31 07:38:56;;;;;;;10.85;9.60;;;;;;;25.86;54.51;99021.38;5077285;28;20023;-89
2022/07/31 07:41:25;;;;;;;15.77;12.07;;;;;;;26.04;54.60;99052.38;5077198;28;20024;-88
2022/07/31 07:43:51;;;;;;;11.88;9.57;;;;;;;26.03;53.78;99042.19;5077423;28;20031;-89
2022/07/31 07:46:17;;;;;;;13.05;11.05;;;;;;;26.25;55.29;99043.66;5075996;28;20028;-89
2022/07/31 07:48:42;;;;;;;14.60;11.77;;;;;;;26.61;54.19;99040.53;5076559;28;20107;-89
2022/07/31 07:51:08;;;;;;;22.27;15.05;;;;;;;26.62;53.85;99032.72;5075217;28;20020;-89
2022/07/31 07:53:33;;;;;;;12.43;10.30;;;;;;;26.90;53.01;99044.59;5074804;28;20464;-88
2022/07/31 07:56:00;;;;;;;18.60;13.02;;;;;;;26.54;53.01;99026.41;5074423;28;20023;-87
2022/07/31 07:58:25;;;;;;;21.70;18.00;;;;;;;26.74;53.41;99031.94;5058194;28;20501;-88
2022/07/31 08:00:51;;;;;;;20.40;17.52;;;;;;;26.93;53.42;99049.44;5073494;28;20144;-88
2022/07/31 08:03:16;;;;;;;18.30;13.57;;;;;;;26.70;52.97;99019.78;5073478;28;20070;-88
2022/07/31 08:05:42;;;;;;;14.93;11.98;;;;;;;26.91;52.93;99020.41;5076064;28;20049;-88
2022/07/31 08:08:07;;;;;;;12.40;11.23;;;;;;;27.29;51.91;99035.97;5093054;28;20031;-88
2022/07/31 08:10:33;;;;;;;20.02;13.82;;;;;;;26.91;51.18;99018.31;5076380;28;20020;-89
2022/07/31 08:12:58;;;;;;;17.98;11.77;;;;;;;27.19;50.44;99027.25;5076259;28;20016;-88
2022/07/31 08:15:24;;;;;;;13.27;11.95;;;;;;;27.22;50.51;99030.50;5076169;28;20020;-88
2022/07/31 08:17:50;;;;;;;11.55;10.32;;;;;;;27.30;49.93;99026.91;5056316;28;20024;-88
2022/07/31 08:20:16;;;;;;;15.48;13.32;;;;;;;27.37;50.01;99019.31;5055656;28;20505;-88
2022/07/31 08:22:41;;;;;;;13.63;12.25;;;;;;;27.27;51.45;99021.28;5055815;28;20031;-88
2022/07/31 08:25:07;;;;;;;12.80;11.50;;;;;;;27.29;50.73;99010.16;5055691;28;20115;-88
2022/07/31 08:27:35;;;;;;;13.57;12.18;;;;;;;27.70;50.71;99019.03;5055665;28;20024;-88
2022/07/31 08:30:01;;;;;;;16.95;11.07;;;;;;;27.70;49.16;99001.81;5072374;28;20026;-89
2022/07/31 08:32:27;;;;;;;24.88;12.07;;;;;;;27.98;49.25;99013.53;5056038;28;20407;-89
2022/07/31 08:34:54;;;;;;;18.00;13.32;;;;;;;28.11;49.46;99022.88;5072677;28;20494;-90
2022/07/31 08:37:20;;;;;;;14.95;10.68;;;;;;;28.07;47.55;99019.34;5055891;28;20118;-91
2022/07/31 08:39:47;;;;;;;10.30;9.27;;;;;;;27.84;47.12;99023.47;5072469;28;20024;-90
2022/07/31 08:42:13;;;;;;;13.57;9.40;;;;;;;27.67;47.11;99002.75;5055816;28;20039;-91
2022/07/31 08:44:40;;;;;;;12.40;9.95;;;;;;;27.84;46.36;99001.28;5074992;28;20032;-90
2022/07/31 08:47:08;;;;;;;10.20;9.20;;;;;;;27.74;46.43;99002.47;5075819;28;20115;-91
2022/07/31 08:49:40;;;;;;;9.85;8.82;;;;;;;28.03;45.16;99013.72;5075492;28;20031;-91
2022/07/31 08:52:15;;;;;;;10.30;9.23;;;;;;;27.92;45.59;99001.81;5075854;28;20026;-90
2022/07/31 08:54:45;;;;;;;11.68;9.23;;;;;;;28.23;44.03;99009.75;5075623;28;20340;-91
2022/07/31 08:57:12;;;;;;;8.63;7.63;;;;;;;28.10;43.95;98992.53;5075635;28;20027;-90
2022/07/31 08:59:40;;;;;;;9.52;8.52;;;;;;;27.40;45.33;98979.00;5075465;28;20024;-91
2022/07/31 09:02:07;;;;;;;10.65;9.00;;;;;;;27.60;45.24;98977.94;5075436;28;20039;-91
2022/07/31 09:04:33;;;;;;;10.77;8.60;;;;;;;28.04;45.07;98997.28;5075465;28;20387;-92
2022/07/31 09:07:00;;;;;;;9.50;8.50;;;;;;;28.09;44.86;98970.81;5075823;28;20047;-90
2022/07/31 09:09:26;;;;;;;9.52;8.20;;;;;;;28.08;44.93;98992.22;5091522;28;20027;-88
2022/07/31 09:11:53;;;;;;;15.00;9.18;;;;;;;28.52;43.33;98999.22;5072030;28;20588;-88
2022/07/31 09:14:31;;;;;;;11.88;9.00;;;;;;;28.71;42.47;99012.41;5074862;28;20027;-88
2022/07/31 09:16:56;;;;;;;7.65;6.80;;;;;;;28.59;42.19;98978.81;5092829;28;20020;-88
2022/07/31 09:19:34;;;;;;;8.80;7.38;;;;;;;28.69;43.10;98996.94;5074771;28;20031;-88
2022/07/31 09:21:59;;;;;;;8.48;7.63;;;;;;;28.90;43.83;98986.66;5073748;28;20028;-88
2022/07/31 09:24:29;;;;;;;9.45;7.45;;;;;;;29.02;42.09;98993.53;5074367;28;20471;-88
2022/07/31 09:27:08;;;;;;;10.18;7.13;;;;;;;28.92;40.78;98994.81;5074786;28;20035;-89
2022/07/31 09:29:35;;;;;;;5.53;5.03;;;;;;;28.95;40.71;98994.66;5074763;28;20032;-89
2022/07/31 09:32:27;;;;;;;6.82;6.13;;;;;;;28.89;41.55;98990.00;5074722;28;20083;-88
2022/07/31 09:34:52;;;;;;;7.05;6.45;;;;;;;29.09;42.52;98980.97;5070109;28;20035;-89
2022/07/31 09:37:24;;;;;;;9.80;6.55;;;;;;;29.13;41.23;98981.59;5073765;28;20571;-88
2022/07/31 09:39:51;;;;;;;7.35;6.20;;;;;;;29.27;41.12;98965.81;5074531;28;20051;-88
2022/07/31 09:42:18;;;;;;;7.45;6.30;;;;;;;29.32;40.62;98973.00;5074472;28;20155;-89
2022/07/31 09:44:46;;;;;;;9.20;8.30;;;;;;;29.21;41.93;98965.63;5074622;28;20410;-90
2022/07/31 09:47:26;;;;;;;6.63;6.03;;;;;;;29.63;40.17;98967.16;5074744;28;20497;-89
2022/07/31 09:50:00;;;;;;;9.73;6.20;;;;;;;29.46;41.41;98955.16;5074783;28;20043;-89
2022/07/31 09:52:28;;;;;;;5.68;5.20;;;;;;;29.31;40.21;98951.25;5073945;28;20114;-88
2022/07/31 09:55:05;;;;;;;10.65;5.80;;;;;;;29.24;39.98;98958.91;5074280;28;20024;-88
2022/07/31 09:57:31;;;;;;;7.32;4.60;;;;;;;29.18;39.36;98942.75;5074314;28;20028;-88
2022/07/31 09:59:56;;;;;;;6.40;5.63;;;;;;;29.51;38.78;98936.44;5074370;28;20482;-89
2022/07/31 10:02:24;;;;;;;5.20;4.70;;;;;;;29.69;36.91;98936.41;5074175;28;20368;-88
2022/07/31 10:04:53;;;;;;;5.47;4.05;;;;;;;29.65;36.40;98935.78;5073475;28;20043;-89
2022/07/31 10:07:19;;;;;;;4.20;3.88;;;;;;;29.58;36.73;98935.31;5074294;28;20089;-88
2022/07/31 10:09:45;;;;;;;6.20;4.47;;;;;;;30.07;38.09;98937.22;5074116;28;20019;-88
2022/07/31 10:12:15;;;;;;;6.50;5.50;;;;;;;29.68;38.38;98940.59;5074136;28;20020;-89
2022/07/31 10:14:43;;;;;;;5.60;5.07;;;;;;;30.07;36.47;98945.06;5073959;28;20490;-88
2022/07/31 10:17:10;;;;;;;5.32;4.80;;;;;;;30.19;35.54;98935.41;5073988;28;20028;-87
2022/07/31 10:19:40;;;;;;;6.80;3.47;;;;;;;30.32;34.60;98940.19;5073643;28;20028;-88
2022/07/31 10:22:08;;;;;;;4.70;4.10;;;;;;;30.41;35.12;98925.75;5073766;28;20032;-88
2022/07/31 10:24:41;;;;;;;3.28;2.67;;;;;;;30.27;33.43;98921.44;5073997;28;20063;-87
2022/07/31 10:27:08;;;;;;;6.40;3.92;;;;;;;30.20;33.71;98913.94;5073692;28;20023;-88
2022/07/31 10:29:37;;;;;;;4.40;3.50;;;;;;;30.40;33.88;98930.69;5073791;28;20119;-87
2022/07/31 10:32:05;;;;;;;5.20;4.38;;;;;;;30.25;34.04;98924.03;5074892;28;20016;-88
2022/07/31 10:34:32;;;;;;;3.60;3.30;;;;;;;29.78;34.00;98894.47;5078115;28;20028;-88
2022/07/31 10:37:05;;;;;;;4.82;3.85;;;;;;;30.15;33.88;98879.19;5096237;28;20147;-90
2022/07/31 10:39:40;;;;;;;5.70;3.75;;;;;;;30.71;33.46;98893.44;5078375;28;20028;-90
2022/07/31 10:42:25;;;;;;;4.97;3.83;;;;;;;31.12;33.29;98898.81;5078062;28;20027;-91
2022/07/31 10:45:12;;;;;;;7.32;3.28;;;;;;;30.78;33.04;98908.31;5077342;28;20035;-90
2022/07/31 10:47:38;;;;;;;4.35;3.78;;;;;;;30.64;33.38;98898.25;5078413;28;20016;-91
2022/07/31 10:50:05;;;;;;;6.38;4.60;;;;;;;30.68;34.21;98898.91;5078064;28;20115;-90
2022/07/31 10:52:36;;;;;;;5.82;5.32;;;;;;;30.53;34.90;98895.09;5078060;28;20103;-91
2022/07/31 10:55:14;;;;;;;7.30;4.53;;;;;;;30.18;34.34;98889.78;5078265;28;20598;-91
2022/07/31 10:57:39;;;;;;;5.93;4.75;;;;;;;30.14;35.10;98889.13;5077813;28;20062;-89
2022/07/31 11:00:13;;;;;;;5.53;4.50;;;;;;;30.19;35.55;98891.38;5077281;28;20469;-90
2022/07/31 11:02:39;;;;;;;7.60;5.55;;;;;;;29.98;35.16;98891.06;5076751;28;20581;-88
2022/07/31 11:05:12;;;;;;;5.82;5.25;;;;;;;29.80;35.64;98898.47;5077520;28;20031;-88
2022/07/31 11:07:44;;;;;;;5.75;5.15;;;;;;;30.02;35.75;98905.34;5077431;28;20057;-88
2022/07/31 11:10:17;;;;;;;8.13;5.45;;;;;;;30.23;35.08;98910.13;5077276;28;20030;-89
2022/07/31 11:12:44;;;;;;;8.57;4.55;;;;;;;30.47;33.79;98909.41;5072633;28;20407;-88
2022/07/31 11:15:24;;;;;;;22.10;5.82;;;;;;;30.56;34.97;98910.63;5077329;28;20051;-88
2022/07/31 11:17:50;;;;;;;8.07;5.78;;;;;;;30.80;34.42;98907.81;5076542;28;20119;-89
2022/07/31 11:20:27;;;;;;;7.63;5.85;;;;;;;30.80;34.83;98904.94;5077247;28;20030;-90
2022/07/31 11:23:05;;;;;;;6.43;5.82;;;;;;;30.46;33.32;98886.78;5075653;28;20501;-90
2022/07/31 11:25:33;;;;;;;6.82;6.13;;;;;;;30.91;34.87;98882.09;5077222;28;20031;-90
2022/07/31 11:28:10;;;;;;;7.03;6.35;;;;;;;31.21;35.44;98893.75;5095179;28;20050;-89
2022/07/31 11:30:58;;;;;;;6.85;6.20;;;;;;;31.46;34.73;98882.22;5076270;28;20024;-91
2022/07/31 11:33:33;;;;;;;6.22;4.22;;;;;;;31.27;31.92;98890.25;5066736;28;20410;-90
2022/07/31 11:36:11;;;;;;;5.75;5.20;;;;;;;31.08;33.00;98887.44;5077188;28;20100;-91